LICA/SUF METAR and TAF weather

Enter ICAO airport designator
Station Type Date Time Source
LICA METAR 2021/09/23 18:50 UTC NOAA

LICA 231850Z AUTO 07003KT 020V100 9999 NCD 18/11 Q1020


Station Type Date Time Source
LICA Decoded METAR 2021/09/23 18:50 UTC NOAA

Lamezia Terme, Italy (LICA) 38-54N 016-15E
Sep 23, 2021 - 02:50 PM EDT / 2021.09.23 1850 UTC
Wind: from the ENE (070 degrees) at 3 MPH (3 KT) (direction variable):0
Visibility: greater than 7 mile(s):0
Temperature: 64 F (18 C)
Dew Point: 51 F (11 C)
Relative Humidity: 63%
Pressure (altimeter): 30.12 in. Hg (1020 hPa)
ob: LICA 231850Z AUTO 07003KT 020V100 9999 NCD 18/11 Q1020
cycle: 19

Station Type Date Time Source
LICA TAF 2021/09/23 18:25 UTC NOAA

TAF LICA 231700Z 2318/2418 07008KT 9999 SCT030
BECMG 2409/2411 27010KT

Example: see airport list